Time;durP1;ratioP1;P1;durP2;ratioP2;P2;SDS_P1;SDS_P2;PMS_P1;PMS_P2;Temp;Humidity;BMP_temperature;BMP_pressure;BME280_temperature;BME280_humidity;BME280_pressure;Samples;Min_cycle;Max_cycle;Signal;HPM_P1;HPM_P2
2022/04/13 00:01:57;;;;;;;6.25;2.72;;;13.90;25.40;;;;;;5074834;28;20458;-34
2022/04/13 00:04:22;;;;;;;3.37;2.30;;;13.90;25.50;;;;;;5075079;28;20190;-35
2022/04/13 00:06:48;;;;;;;3.70;2.50;;;13.90;26.20;;;;;;5074948;28;20176;-35
2022/04/13 00:09:14;;;;;;;8.67;2.83;;;13.80;25.50;;;;;;5074732;28;20201;-34
2022/04/13 00:11:39;;;;;;;4.23;2.43;;;13.80;25.70;;;;;;5074566;28;20214;-34
2022/04/13 00:14:05;;;;;;;4.47;2.60;;;13.80;25.60;;;;;;5074834;28;20173;-35
2022/04/13 00:16:31;;;;;;;4.63;2.20;;;13.70;26.00;;;;;;5074955;28;20175;-34
2022/04/13 00:18:57;;;;;;;4.60;2.60;;;13.70;27.00;;;;;;5074830;28;20900;-35
2022/04/13 00:21:23;;;;;;;5.00;2.30;;;13.60;26.70;;;;;;5074348;28;20613;-35
2022/04/13 00:23:48;;;;;;;5.23;2.33;;;13.50;27.10;;;;;;5074625;28;20493;-35
2022/04/13 00:26:14;;;;;;;4.47;2.73;;;13.50;26.80;;;;;;5074826;28;20719;-35
2022/04/13 00:28:41;;;;;;;4.83;2.37;;;13.40;26.90;;;;;;5074041;28;20554;-35
2022/04/13 00:31:07;;;;;;;6.35;2.58;;;13.40;26.70;;;;;;5074546;28;20411;-35
2022/04/13 00:33:33;;;;;;;4.40;2.43;;;13.30;26.90;;;;;;5074403;28;20254;-34
2022/04/13 00:35:59;;;;;;;11.50;4.07;;;13.30;26.90;;;;;;5073772;28;20330;-35
2022/04/13 00:38:25;;;;;;;4.18;2.25;;;13.20;27.40;;;;;;5073108;28;20704;-35
2022/04/13 00:40:51;;;;;;;5.70;3.50;;;13.20;27.60;;;;;;5073927;28;20200;-35
2022/04/13 00:43:17;;;;;;;6.10;2.20;;;13.10;27.90;;;;;;5074269;28;20172;-34
2022/04/13 00:45:47;;;;;;;4.60;3.08;;;13.00;28.00;;;;;;5074246;28;20252;-34
2022/04/13 00:48:40;;;;;;;6.57;3.33;;;13.00;27.90;;;;;;5074100;28;20204;-35
2022/04/13 00:51:07;;;;;;;7.15;2.67;;;12.90;28.10;;;;;;5073895;28;20248;-35
2022/04/13 00:53:34;;;;;;;5.40;2.58;;;12.80;28.00;;;;;;5074014;28;20234;-34
2022/04/13 00:56:03;;;;;;;4.03;2.22;;;12.80;27.90;;;;;;5074275;28;20186;-35
2022/04/13 00:58:32;;;;;;;3.20;2.05;;;12.70;28.20;;;;;;5074160;28;20204;-34
2022/04/13 01:01:01;;;;;;;4.35;2.38;;;12.70;28.50;;;;;;5073720;28;20192;-34
2022/04/13 01:03:28;;;;;;;4.43;2.85;;;12.60;28.60;;;;;;5073950;28;20173;-34
2022/04/13 01:05:54;;;;;;;4.25;1.83;;;12.50;28.80;;;;;;5073365;28;20169;-35
2022/04/13 01:08:21;;;;;;;4.63;3.00;;;12.50;29.40;;;;;;5073602;28;20249;-35
2022/04/13 01:10:49;;;;;;;5.00;2.13;;;12.40;29.50;;;;;;5073541;28;20923;-35
2022/04/13 01:13:16;;;;;;;3.83;2.47;;;12.30;30.30;;;;;;5073652;28;20177;-34
2022/04/13 01:15:42;;;;;;;3.35;2.60;;;12.30;29.30;;;;;;5073727;28;20180;-34
2022/04/13 01:18:08;;;;;;;4.00;2.35;;;12.20;29.50;;;;;;5073749;28;20608;-34
2022/04/13 01:20:35;;;;;;;6.40;2.13;;;12.10;29.60;;;;;;5073459;28;20294;-34
2022/04/13 01:23:01;;;;;;;7.32;3.42;;;12.10;29.80;;;;;;5073404;28;20900;-34
2022/04/13 01:25:30;;;;;;;7.40;3.17;;;12.10;29.40;;;;;;5073649;28;20177;-34
2022/04/13 01:27:56;;;;;;;5.68;2.83;;;12.00;29.50;;;;;;5073238;28;20793;-34
2022/04/13 01:30:25;;;;;;;9.67;2.80;;;12.00;30.00;;;;;;5073318;28;20185;-34
2022/04/13 01:32:51;;;;;;;3.88;2.47;;;11.90;30.10;;;;;;5073490;28;20548;-34
2022/04/13 01:35:17;;;;;;;7.00;2.55;;;11.90;30.40;;;;;;5073359;28;20180;-34
2022/04/13 01:37:43;;;;;;;11.80;3.00;;;11.80;29.90;;;;;;5072830;28;20186;-34
2022/04/13 01:40:10;;;;;;;5.53;3.30;;;11.80;30.30;;;;;;5072548;28;20335;-34
2022/04/13 01:42:36;;;;;;;2.53;2.30;;;11.80;30.40;;;;;;5072358;28;20168;-34
2022/04/13 01:45:03;;;;;;;5.53;3.05;;;11.70;30.20;;;;;;5073168;28;20183;-34
2022/04/13 01:47:28;;;;;;;4.90;2.10;;;11.70;30.60;;;;;;5073092;28;20181;-34
2022/04/13 01:49:54;;;;;;;6.67;3.30;;;11.60;31.00;;;;;;5073122;28;20260;-34
2022/04/13 01:52:20;;;;;;;3.53;2.50;;;11.60;31.00;;;;;;5072625;28;20196;-34
2022/04/13 01:54:46;;;;;;;4.03;2.67;;;11.50;31.00;;;;;;5071523;28;20442;-34
2022/04/13 01:57:11;;;;;;;6.43;4.70;;;11.50;31.10;;;;;;5072767;28;20250;-34
2022/04/13 01:59:37;;;;;;;5.53;3.10;;;11.40;31.20;;;;;;5072701;28;20195;-34
2022/04/13 02:02:04;;;;;;;6.33;3.37;;;11.30;31.00;;;;;;5072622;28;20197;-34
2022/04/13 02:04:31;;;;;;;5.53;2.35;;;11.30;31.00;;;;;;5072915;28;20178;-34
2022/04/13 02:06:58;;;;;;;4.15;2.95;;;11.30;31.20;;;;;;5072873;28;20578;-34
2022/04/13 02:09:23;;;;;;;8.57;4.45;;;11.20;31.20;;;;;;5072706;28;20192;-34
2022/04/13 02:11:49;;;;;;;4.30;2.80;;;11.10;32.10;;;;;;5072329;28;20656;-34
2022/04/13 02:14:15;;;;;;;5.37;2.23;;;11.10;31.70;;;;;;5072463;28;20228;-34
2022/04/13 02:16:42;;;;;;;3.78;2.45;;;11.00;31.70;;;;;;5072342;28;20410;-34
2022/04/13 02:19:07;;;;;;;4.63;2.92;;;11.00;31.80;;;;;;5072589;28;20196;-34
2022/04/13 02:21:34;;;;;;;4.80;2.57;;;11.00;32.00;;;;;;5072316;28;20199;-34
2022/04/13 02:24:00;;;;;;;2.95;2.17;;;11.00;32.10;;;;;;5072307;28;20415;-34
2022/04/13 02:26:26;;;;;;;3.92;2.67;;;10.90;32.20;;;;;;5072548;28;20263;-34
2022/04/13 02:28:53;;;;;;;2.93;2.60;;;10.90;31.90;;;;;;5072195;28;20227;-34
2022/04/13 02:31:19;;;;;;;5.25;3.47;;;10.80;32.20;;;;;;5072150;28;20467;-34
2022/04/13 02:33:45;;;;;;;3.28;2.63;;;10.80;32.20;;;;;;5072455;28;20325;-33
2022/04/13 02:36:11;;;;;;;4.47;2.73;;;10.70;32.70;;;;;;5072346;28;20625;-34
2022/04/13 02:38:37;;;;;;;2.90;2.10;;;10.70;32.10;;;;;;5071953;28;20495;-34
2022/04/13 02:41:02;;;;;;;8.10;2.20;;;10.70;32.70;;;;;;5071751;28;20200;-34
2022/04/13 02:43:28;;;;;;;7.13;2.57;;;10.60;32.30;;;;;;5072257;28;20462;-34
2022/04/13 02:45:57;;;;;;;5.50;2.83;;;10.70;32.50;;;;;;5071980;28;20233;-34
2022/04/13 02:48:23;;;;;;;4.10;2.00;;;10.70;32.60;;;;;;5072235;28;20218;-34
2022/04/13 02:50:49;;;;;;;3.83;2.10;;;10.70;32.30;;;;;;5072016;28;20183;-35
2022/04/13 02:53:15;;;;;;;2.97;1.80;;;10.70;32.30;;;;;;5072032;28;20179;-34
2022/04/13 02:55:42;;;;;;;4.03;2.80;;;10.60;32.80;;;;;;5072234;28;20421;-34
2022/04/13 02:58:07;;;;;;;7.28;3.35;;;10.60;33.00;;;;;;5072126;28;20180;-34
2022/04/13 03:00:33;;;;;;;4.37;2.60;;;10.60;32.40;;;;;;5071512;28;20253;-34
2022/04/13 03:02:59;;;;;;;5.20;2.63;;;10.60;32.30;;;;;;5072080;28;20414;-34
2022/04/13 03:05:25;;;;;;;3.77;2.70;;;10.70;33.00;;;;;;5071867;28;20978;-34
2022/04/13 03:07:51;;;;;;;2.90;2.00;;;10.70;32.70;;;;;;5072030;28;20176;-34
2022/04/13 03:10:17;;;;;;;3.50;1.97;;;10.60;32.40;;;;;;5071684;28;20567;-34
2022/04/13 03:12:42;;;;;;;5.57;3.73;;;10.70;33.00;;;;;;5071636;28;20177;-34
2022/04/13 03:15:09;;;;;;;6.10;3.03;;;10.80;32.00;;;;;;5071629;28;20434;-35
2022/04/13 03:17:35;;;;;;;6.47;2.90;;;11.00;31.90;;;;;;5071985;28;20186;-34
2022/04/13 03:20:01;;;;;;;4.43;2.73;;;11.10;31.80;;;;;;5071752;28;20643;-34
2022/04/13 03:22:27;;;;;;;4.53;3.40;;;11.30;31.70;;;;;;5071739;28;20180;-34
2022/04/13 03:24:54;;;;;;;6.70;2.83;;;11.50;31.60;;;;;;5071938;28;20176;-34
2022/04/13 03:27:20;;;;;;;9.02;2.85;;;11.70;31.30;;;;;;5071595;28;20668;-34
2022/04/13 03:29:46;;;;;;;4.20;2.87;;;12.00;30.80;;;;;;5071784;28;20196;-34
2022/04/13 03:32:11;;;;;;;5.05;2.80;;;12.20;30.40;;;;;;5071588;28;20772;-34
2022/04/13 03:34:37;;;;;;;7.53;3.33;;;12.30;30.20;;;;;;5071594;28;20180;-34
2022/04/13 03:37:03;;;;;;;5.30;3.20;;;12.40;29.90;;;;;;5071517;28;20264;-34
2022/04/13 03:39:29;;;;;;;5.22;3.05;;;12.50;29.80;;;;;;5071389;28;20822;-34
2022/04/13 03:41:55;;;;;;;3.53;2.38;;;12.50;29.50;;;;;;5071210;28;20287;-34
2022/04/13 03:44:21;;;;;;;6.63;4.00;;;12.70;29.40;;;;;;5071413;28;20325;-34
2022/04/13 03:46:48;;;;;;;9.95;3.65;;;12.80;29.30;;;;;;5071429;28;20164;-34
2022/04/13 03:49:14;;;;;;;5.13;3.13;;;12.90;28.80;;;;;;5071465;28;20211;-34
2022/04/13 03:51:40;;;;;;;5.97;3.22;;;13.00;28.80;;;;;;5071235;28;20173;-34
2022/04/13 03:54:06;;;;;;;7.70;3.47;;;13.10;28.70;;;;;;5071379;28;20646;-34
2022/04/13 03:56:33;;;;;;;4.87;3.00;;;13.10;28.40;;;;;;5053520;28;20188;-34
2022/04/13 03:59:00;;;;;;;10.38;3.92;;;13.30;28.40;;;;;;5071478;28;20200;-34
2022/04/13 04:01:26;;;;;;;8.77;3.38;;;13.30;28.10;;;;;;5071241;28;20235;-34
2022/04/13 04:03:53;;;;;;;5.35;3.00;;;13.30;28.00;;;;;;5071959;28;20173;-34
2022/04/13 04:06:19;;;;;;;4.85;2.67;;;13.30;27.90;;;;;;5075186;28;20176;-34
2022/04/13 04:08:45;;;;;;;5.73;3.27;;;13.30;27.70;;;;;;5074886;28;20666;-34
2022/04/13 04:11:11;;;;;;;6.20;3.15;;;13.40;27.70;;;;;;5074568;28;20893;-34
2022/04/13 04:13:37;;;;;;;8.18;4.13;;;13.40;27.60;;;;;;5074698;28;20179;-34
2022/04/13 04:16:03;;;;;;;5.90;3.93;;;13.50;27.60;;;;;;5075018;28;20682;-34
2022/04/13 04:18:29;;;;;;;7.35;2.50;;;13.50;27.60;;;;;;5074489;28;20422;-34
2022/04/13 04:20:55;;;;;;;6.80;3.50;;;13.50;27.50;;;;;;5074634;28;20208;-33
2022/04/13 04:23:21;;;;;;;4.40;3.17;;;13.50;27.50;;;;;;5074317;28;20840;-34
2022/04/13 04:25:47;;;;;;;5.65;3.47;;;13.50;27.40;;;;;;5074470;28;20168;-33
2022/04/13 04:28:12;;;;;;;6.37;3.43;;;13.50;27.40;;;;;;5074398;28;20201;-34
2022/04/13 04:30:39;;;;;;;6.30;3.60;;;13.50;27.40;;;;;;5074490;28;20425;-34
2022/04/13 04:33:12;;;;;;;6.28;3.33;;;13.50;27.30;;;;;;5074314;28;20531;-34
2022/04/13 04:35:39;;;;;;;11.65;2.50;;;13.60;27.20;;;;;;5074642;28;20161;-34
2022/04/13 04:38:05;;;;;;;5.30;3.38;;;13.60;27.10;;;;;;5074128;28;20234;-34
2022/04/13 04:40:31;;;;;;;5.93;3.33;;;13.70;27.20;;;;;;5074217;28;20250;-34
2022/04/13 04:42:58;;;;;;;4.43;3.20;;;13.70;27.20;;;;;;5074266;28;20172;-35
2022/04/13 04:45:24;;;;;;;8.45;3.42;;;13.70;26.80;;;;;;5074122;28;20491;-34
2022/04/13 04:47:50;;;;;;;8.40;2.90;;;13.80;27.60;;;;;;5074245;28;20172;-34
2022/04/13 04:50:21;;;;;;;5.40;3.50;;;13.80;27.10;;;;;;5074085;28;20642;-33
2022/04/13 04:52:48;;;;;;;6.30;3.30;;;13.80;27.00;;;;;;5073979;28;20222;-33
2022/04/13 04:55:16;;;;;;;12.07;3.17;;;13.90;27.10;;;;;;5074057;28;20864;-34
2022/04/13 04:57:42;;;;;;;5.75;3.20;;;13.90;27.10;;;;;;5074045;28;20203;-34
2022/04/13 05:00:11;;;;;;;5.68;2.95;;;13.90;27.00;;;;;;5073785;28;20728;-33
2022/04/13 05:02:37;;;;;;;8.13;3.78;;;14.00;26.90;;;;;;5073938;28;20185;-33
2022/04/13 05:05:04;;;;;;;6.72;3.22;;;14.00;26.80;;;;;;5072932;28;20658;-33
2022/04/13 05:07:30;;;;;;;6.15;2.55;;;14.00;26.90;;;;;;5072153;28;20181;-34
2022/04/13 05:09:56;;;;;;;6.63;3.63;;;14.10;27.00;;;;;;5072786;28;20201;-34
2022/04/13 05:12:22;;;;;;;4.37;3.10;;;14.20;26.80;;;;;;5073583;28;20403;-34
2022/04/13 05:14:47;;;;;;;5.70;3.57;;;14.20;26.50;;;;;;5073763;28;20168;-34
2022/04/13 05:17:14;;;;;;;6.07;3.10;;;14.30;26.50;;;;;;5072397;28;20415;-34
2022/04/13 05:19:40;;;;;;;5.93;3.22;;;14.40;26.70;;;;;;5073695;28;20193;-34
2022/04/13 05:22:05;;;;;;;7.00;3.37;;;14.50;26.60;;;;;;5073401;28;20680;-34
2022/04/13 05:24:31;;;;;;;8.90;3.40;;;14.50;26.20;;;;;;5073662;28;20180;-34
2022/04/13 05:26:57;;;;;;;11.83;3.87;;;14.60;26.00;;;;;;5073681;28;20168;-34
2022/04/13 05:29:22;;;;;;;6.83;3.30;;;14.70;26.20;;;;;;5073254;28;20517;-34
2022/04/13 05:31:48;;;;;;;6.00;3.53;;;14.80;25.70;;;;;;5073079;28;20173;-34
2022/04/13 05:34:14;;;;;;;7.60;2.80;;;14.80;25.90;;;;;;5073315;28;20183;-34
2022/04/13 05:36:39;;;;;;;6.60;4.20;;;14.90;26.00;;;;;;5073153;28;20596;-34
2022/04/13 05:39:05;;;;;;;5.27;3.23;;;15.00;25.40;;;;;;5072856;28;20212;-33
2022/04/13 05:41:31;;;;;;;6.30;3.23;;;15.20;25.80;;;;;;5072985;28;20196;-34
2022/04/13 05:43:57;;;;;;;12.00;5.60;;;15.20;25.00;;;;;;5073208;28;20439;-34
2022/04/13 05:46:22;;;;;;;6.60;4.27;;;15.30;25.50;;;;;;5073176;28;20176;-34
2022/04/13 05:48:48;;;;;;;7.63;3.97;;;15.30;25.20;;;;;;5072809;28;20426;-35
2022/04/13 05:51:14;;;;;;;5.80;3.80;;;15.40;24.90;;;;;;5072534;28;20211;-35
2022/04/13 05:53:40;;;;;;;5.90;4.27;;;15.60;25.00;;;;;;5072752;28;20415;-35
2022/04/13 05:56:06;;;;;;;5.10;2.80;;;15.70;24.70;;;;;;5073047;28;20198;-35
2022/04/13 05:58:32;;;;;;;6.15;2.92;;;15.80;24.80;;;;;;5072836;28;20196;-35
2022/04/13 06:00:58;;;;;;;9.35;3.28;;;15.80;24.70;;;;;;5054432;28;20196;-34
2022/04/13 06:03:24;;;;;;;7.40;3.90;;;15.90;25.00;;;;;;5072602;28;20221;-35
2022/04/13 06:05:52;;;;;;;5.30;3.03;;;16.00;24.40;;;;;;5072460;28;20494;-35
2022/04/13 06:08:18;;;;;;;10.32;3.78;;;16.10;24.10;;;;;;5072734;28;20419;-35
2022/04/13 06:10:44;;;;;;;6.13;3.47;;;16.10;24.30;;;;;;5072256;28;20263;-34
2022/04/13 06:13:10;;;;;;;4.57;3.90;;;16.20;24.20;;;;;;5072433;28;20164;-35
2022/04/13 06:15:36;;;;;;;11.60;3.50;;;16.20;23.90;;;;;;5072474;28;20908;-35
2022/04/13 06:18:02;;;;;;;14.35;4.85;;;16.30;24.40;;;;;;5072429;28;20403;-35
2022/04/13 06:20:28;;;;;;;7.93;3.20;;;16.40;24.40;;;;;;5072274;28;20226;-34
2022/04/13 06:22:53;;;;;;;8.07;4.50;;;16.50;24.40;;;;;;5072224;28;20411;-33
2022/04/13 06:25:19;;;;;;;6.37;3.47;;;16.60;24.30;;;;;;5072319;28;20169;-34
2022/04/13 06:27:46;;;;;;;9.40;5.20;;;16.60;24.20;;;;;;5072059;28;20176;-34
2022/04/13 06:30:13;;;;;;;6.05;4.18;;;16.80;24.10;;;;;;5072364;28;20290;-34
2022/04/13 06:32:43;;;;;;;9.77;4.32;;;16.90;24.10;;;;;;5072173;28;20234;-34
2022/04/13 06:35:14;;;;;;;8.77;5.10;;;17.00;23.00;;;;;;5072209;28;20183;-34
2022/04/13 06:37:41;;;;;;;8.57;4.07;;;17.00;22.90;;;;;;5072394;28;20237;-34
2022/04/13 06:40:08;;;;;;;7.28;3.45;;;17.00;23.60;;;;;;5071834;28;20215;-34
2022/04/13 06:42:38;;;;;;;6.30;3.92;;;17.10;23.00;;;;;;5071834;28;20164;-34
2022/04/13 06:45:05;;;;;;;9.07;3.72;;;17.10;23.70;;;;;;5071952;28;20173;-34
2022/04/13 06:47:31;;;;;;;8.68;4.13;;;17.20;23.30;;;;;;5072164;28;20180;-34
2022/04/13 06:49:57;;;;;;;6.90;3.90;;;17.20;23.10;;;;;;5071912;28;20616;-34
2022/04/13 06:52:23;;;;;;;8.68;4.45;;;17.30;23.40;;;;;;5072026;28;20415;-34
2022/04/13 06:54:49;;;;;;;5.90;3.80;;;17.30;23.30;;;;;;5072015;28;20184;-34
2022/04/13 06:57:15;;;;;;;9.63;4.30;;;17.30;23.10;;;;;;5071993;28;20178;-34
2022/04/13 06:59:40;;;;;;;6.40;3.35;;;17.30;23.20;;;;;;5071960;28;20200;-34
2022/04/13 07:02:12;;;;;;;9.37;4.10;;;17.50;23.50;;;;;;5071759;28;20289;-35
2022/04/13 07:04:39;;;;;;;8.75;4.18;;;17.50;22.90;;;;;;5072063;28;20164;-35
2022/04/13 07:07:06;;;;;;;7.75;4.60;;;17.60;23.00;;;;;;5071787;28;20180;-34
2022/04/13 07:09:32;;;;;;;8.00;4.00;;;17.80;23.00;;;;;;5071760;28;20234;-34
2022/04/13 07:11:58;;;;;;;6.95;3.67;;;17.80;23.50;;;;;;5071526;28;20176;-34
2022/04/13 07:14:24;;;;;;;6.97;4.03;;;17.80;23.10;;;;;;5071710;28;20237;-34
2022/04/13 07:16:50;;;;;;;3.43;2.57;;;17.90;22.80;;;;;;5071664;28;20260;-35
2022/04/13 07:19:15;;;;;;;7.90;4.20;;;17.90;23.10;;;;;;5071949;28;20190;-34
2022/04/13 07:21:41;;;;;;;10.60;4.00;;;18.00;23.30;;;;;;5071534;28;20473;-35
2022/04/13 07:24:07;;;;;;;7.33;4.87;;;18.10;23.20;;;;;;5071552;28;20169;-34
2022/04/13 07:26:32;;;;;;;11.10;4.63;;;18.20;22.90;;;;;;5071705;28;20176;-34
2022/04/13 07:28:58;;;;;;;7.33;3.70;;;18.40;22.80;;;;;;5071592;28;20808;-34
2022/04/13 07:31:25;;;;;;;8.15;3.40;;;18.50;23.00;;;;;;5071314;28;20167;-34
2022/04/13 07:33:50;;;;;;;6.78;3.60;;;18.60;22.70;;;;;;5071576;28;20659;-34
2022/04/13 07:36:16;;;;;;;5.87;3.33;;;18.80;22.90;;;;;;5071732;28;20228;-34
2022/04/13 07:38:42;;;;;;;6.17;4.13;;;18.80;22.30;;;;;;5071439;28;20222;-34
2022/04/13 07:41:07;;;;;;;10.70;5.07;;;18.80;22.60;;;;;;5075175;28;20215;-34
2022/04/13 07:43:33;;;;;;;10.67;4.53;;;19.00;22.80;;;;;;5075221;28;20169;-34
2022/04/13 07:45:59;;;;;;;10.30;5.10;;;19.10;22.40;;;;;;5075206;28;20181;-34
2022/04/13 07:48:25;;;;;;;8.53;4.53;;;19.30;21.90;;;;;;5075165;28;20244;-34
2022/04/13 07:50:50;;;;;;;8.07;4.43;;;19.40;22.60;;;;;;5074987;28;20179;-34
2022/04/13 07:53:16;;;;;;;8.00;4.90;;;19.50;22.00;;;;;;5075421;28;20176;-34
2022/04/13 07:55:42;;;;;;;10.20;5.17;;;19.60;21.80;;;;;;5075384;28;20275;-34
2022/04/13 07:58:07;;;;;;;8.87;4.83;;;19.70;21.40;;;;;;5074935;28;20177;-34
2022/04/13 08:00:34;;;;;;;10.47;4.30;;;19.90;21.60;;;;;;5074585;28;20204;-34
2022/04/13 08:02:59;;;;;;;9.95;4.60;;;20.00;22.00;;;;;;5074896;28;20913;-34
2022/04/13 08:05:25;;;;;;;10.00;4.17;;;20.20;21.00;;;;;;5075124;28;20171;-34
2022/04/13 08:07:51;;;;;;;8.15;4.07;;;20.40;20.80;;;;;;5074774;28;20175;-34
2022/04/13 08:10:17;;;;;;;4.55;3.60;;;20.50;21.00;;;;;;5074662;28;20673;-34
2022/04/13 08:12:46;;;;;;;9.97;3.87;;;20.60;20.10;;;;;;5074704;28;20173;-34
2022/04/13 08:15:13;;;;;;;10.48;4.40;;;20.70;20.30;;;;;;5074937;28;20516;-34
2022/04/13 08:17:40;;;;;;;7.18;3.65;;;20.70;20.00;;;;;;5074835;28;20181;-35
2022/04/13 08:20:08;;;;;;;7.57;5.15;;;20.90;21.20;;;;;;5074550;28;20196;-35
2022/04/13 08:22:33;;;;;;;9.73;5.80;;;21.00;20.70;;;;;;5073227;28;20176;-35
2022/04/13 08:24:59;;;;;;;7.07;3.80;;;21.10;20.60;;;;;;5074536;28;20638;-35
2022/04/13 08:27:25;;;;;;;9.00;5.70;;;21.30;20.00;;;;;;5074561;28;20596;-35
2022/04/13 08:29:50;;;;;;;7.23;4.60;;;21.30;20.30;;;;;;5074583;28;20541;-36
2022/04/13 08:32:17;;;;;;;7.90;4.23;;;21.30;20.30;;;;;;5074378;28;20168;-36
2022/04/13 08:34:43;;;;;;;6.05;3.13;;;21.50;20.20;;;;;;5074801;28;20665;-35
2022/04/13 08:37:10;;;;;;;7.57;4.47;;;21.60;19.70;;;;;;5072954;28;20224;-35
2022/04/13 08:39:36;;;;;;;8.90;4.47;;;21.80;19.70;;;;;;5074153;28;20738;-35
2022/04/13 08:42:13;;;;;;;6.63;4.93;;;21.90;20.10;;;;;;5073308;28;20670;-35
2022/04/13 08:44:49;;;;;;;9.38;4.82;;;22.00;19.80;;;;;;5074203;28;20741;-35
2022/04/13 08:47:21;;;;;;;9.40;5.00;;;22.10;19.90;;;;;;5074268;28;20172;-35
2022/04/13 08:49:51;;;;;;;7.93;4.07;;;22.10;19.30;;;;;;5073812;28;20560;-35
2022/04/13 08:52:28;;;;;;;7.43;4.07;;;22.30;19.70;;;;;;5073417;28;20180;-35
2022/04/13 08:55:00;;;;;;;8.82;4.18;;;22.40;19.60;;;;;;5073378;28;20630;-35
2022/04/13 08:57:28;;;;;;;10.77;4.45;;;22.50;19.60;;;;;;5055849;28;20181;-35
2022/04/13 09:00:06;;;;;;;6.00;4.77;;;22.60;19.80;;;;;;5073838;28;20196;-35
2022/04/13 09:02:45;;;;;;;6.85;4.72;;;22.80;19.70;;;;;;5073664;28;20394;-35
2022/04/13 09:05:24;;;;;;;6.50;3.90;;;23.00;20.50;;;;;;5073808;28;20556;-35
2022/04/13 09:08:05;;;;;;;8.33;4.47;;;23.00;19.00;;;;;;5073691;28;20387;-36
2022/04/13 09:10:32;;;;;;;5.73;3.53;;;23.00;20.00;;;;;;5073374;28;20395;-36
2022/04/13 09:12:58;;;;;;;8.60;3.60;;;23.00;18.80;;;;;;5073716;28;20415;-35
2022/04/13 09:15:24;;;;;;;7.60;4.30;;;23.10;19.50;;;;;;5073486;28;20403;-36
2022/04/13 09:17:51;;;;;;;7.18;4.68;;;23.20;19.20;;;;;;5073457;28;20398;-36
2022/04/13 09:20:17;;;;;;;7.03;4.35;;;23.40;19.40;;;;;;5073515;28;20184;-35
2022/04/13 09:22:44;;;;;;;6.10;3.80;;;23.40;19.40;;;;;;5073375;28;20161;-36
2022/04/13 09:25:10;;;;;;;7.17;4.33;;;23.50;19.40;;;;;;5073364;28;20415;-36
2022/04/13 09:27:38;;;;;;;7.17;4.47;;;23.70;19.60;;;;;;5073725;28;20815;-36
2022/04/13 09:30:06;;;;;;;9.90;4.93;;;23.90;19.20;;;;;;5073292;28;20435;-36
2022/04/13 09:32:32;;;;;;;6.33;4.30;;;24.00;19.20;;;;;;5073270;28;20494;-36
2022/04/13 09:34:59;;;;;;;8.10;4.20;;;24.20;19.20;;;;;;5073211;28;20423;-36
2022/04/13 09:37:26;;;;;;;9.87;4.40;;;24.20;19.00;;;;;;5073345;28;20468;-36
2022/04/13 09:39:52;;;;;;;8.83;4.43;;;24.30;19.00;;;;;;5072864;28;20446;-36
2022/04/13 09:42:19;;;;;;;8.83;4.23;;;24.40;18.60;;;;;;5072780;28;20447;-36
2022/04/13 09:45:00;;;;;;;4.83;3.53;;;24.50;18.40;;;;;;5072996;28;20177;-36
2022/04/13 09:47:32;;;;;;;6.27;3.97;;;24.60;19.50;;;;;;5073250;28;20411;-36
2022/04/13 09:49:57;;;;;;;6.77;4.20;;;24.70;19.10;;;;;;5073159;28;20427;-36
2022/04/13 09:52:32;;;;;;;6.30;3.40;;;24.70;18.70;;;;;;5072707;28;20425;-36
2022/04/13 09:54:58;;;;;;;5.20;3.73;;;24.90;18.80;;;;;;5072752;28;20633;-36
2022/04/13 09:57:25;;;;;;;7.70;4.83;;;25.00;19.10;;;;;;5073264;28;20923;-36
2022/04/13 10:00:05;;;;;;;3.67;2.50;;;25.10;18.10;;;;;;5072991;28;20872;-36
2022/04/13 10:02:35;;;;;;;8.27;3.33;;;25.10;18.10;;;;;;5071711;28;20511;-36
2022/04/13 10:05:02;;;;;;;9.50;4.27;;;25.00;18.30;;;;;;5072703;28;20502;-36
2022/04/13 10:07:28;;;;;;;5.80;3.23;;;25.00;18.30;;;;;;5072560;28;20403;-36
2022/04/13 10:09:53;;;;;;;6.03;2.77;;;24.90;18.40;;;;;;5072679;28;20415;-36
2022/04/13 10:12:19;;;;;;;6.90;4.13;;;25.00;17.60;;;;;;5072467;28;20263;-36
2022/04/13 10:14:46;;;;;;;7.70;3.73;;;25.10;18.30;;;;;;5072510;28;20550;-36
2022/04/13 10:17:13;;;;;;;6.00;3.30;;;25.10;18.00;;;;;;5072438;28;20176;-36
2022/04/13 10:19:39;;;;;;;5.27;2.97;;;25.30;18.20;;;;;;5072306;28;20430;-36
2022/04/13 10:22:06;;;;;;;5.17;3.60;;;25.40;17.90;;;;;;5071988;28;20454;-36
2022/04/13 10:24:34;;;;;;;7.60;3.33;;;25.60;19.00;;;;;;5072582;28;20418;-36
2022/04/13 10:27:16;;;;;;;6.37;3.20;;;25.80;17.90;;;;;;5072238;28;20422;-36
2022/04/13 10:29:46;;;;;;;4.57;3.10;;;26.00;18.20;;;;;;5072225;28;20426;-36
2022/04/13 10:32:18;;;;;;;6.13;3.73;;;26.10;17.80;;;;;;5072026;28;20477;-36
2022/04/13 10:34:44;;;;;;;6.93;4.27;;;26.20;17.70;;;;;;5072093;28;20453;-36
2022/04/13 10:37:14;;;;;;;5.30;2.60;;;26.50;17.60;;;;;;5072437;28;20407;-36
2022/04/13 10:39:42;;;;;;;5.60;2.70;;;26.60;17.50;;;;;;5071871;28;20450;-36
2022/04/13 10:42:10;;;;;;;3.87;2.53;;;26.80;16.60;;;;;;5071864;28;20576;-36
2022/04/13 10:44:42;;;;;;;6.23;3.10;;;26.70;16.70;;;;;;5072087;28;20410;-36
2022/04/13 10:47:10;;;;;;;5.87;2.90;;;26.90;17.40;;;;;;5072031;28;20403;-36
2022/04/13 10:49:57;;;;;;;3.20;2.10;;;27.10;17.60;;;;;;5072176;28;20522;-36
2022/04/13 10:52:55;;;;;;;4.43;2.97;;;27.10;17.10;;;;;;5072000;28;20429;-36
2022/04/13 10:55:22;;;;;;;2.60;1.83;;;27.40;17.40;;;;;;5071849;28;20387;-36
2022/04/13 10:58:26;;;;;;;3.53;2.03;;;27.40;15.80;;;;;;5071553;28;20403;-36
2022/04/13 11:01:04;;;;;;;4.00;2.50;;;27.30;16.40;;;;;;5036923;28;20490;-36
2022/04/13 11:03:34;;;;;;;3.80;2.53;;;27.30;16.70;;;;;;5051864;28;20793;-36
2022/04/13 11:06:02;;;;;;;5.20;2.57;;;27.50;17.40;;;;;;5051819;28;20410;-36
2022/04/13 11:09:07;;;;;;;5.93;3.03;;;27.70;16.80;;;;;;5051647;28;20470;-36
2022/04/13 11:11:37;;;;;;;3.10;2.30;;;27.90;17.20;;;;;;5051257;28;20416;-36
2022/04/13 11:14:23;;;;;;;3.50;2.50;;;28.00;16.60;;;;;;5054084;28;20902;-36
2022/04/13 11:17:15;;;;;;;4.83;2.60;;;27.90;15.80;;;;;;5056162;28;20999;-36
2022/04/13 11:19:41;;;;;;;2.43;1.77;;;27.80;15.90;;;;;;5054657;28;20801;-35
2022/04/13 11:22:09;;;;;;;3.77;2.33;;;27.90;16.50;;;;;;5055782;28;20466;-35
2022/04/13 11:24:48;;;;;;;3.10;1.97;;;28.10;17.40;;;;;;5055850;28;20860;-36
2022/04/13 11:27:15;;;;;;;3.37;2.43;;;28.30;16.10;;;;;;5055857;28;20403;-35
2022/04/13 11:29:42;;;;;;;4.00;2.40;;;28.10;16.00;;;;;;5055848;28;20427;-36
2022/04/13 11:32:25;;;;;;;2.90;2.03;;;28.10;16.30;;;;;;5060006;28;21058;-36
2022/04/13 11:34:51;;;;;;;5.33;2.63;;;28.10;16.70;;;;;;5075433;28;20460;-36
2022/04/13 11:37:25;;;;;;;3.03;2.03;;;28.10;16.00;;;;;;5075401;28;20411;-36
2022/04/13 11:39:50;;;;;;;4.03;2.50;;;28.00;16.10;;;;;;5075348;28;20219;-36
2022/04/13 11:42:24;;;;;;;4.17;2.73;;;28.00;15.90;;;;;;5075116;28;20604;-36
2022/04/13 11:45:16;;;;;;;3.83;2.60;;;28.20;16.70;;;;;;5075458;28;20251;-36
2022/04/13 11:47:53;;;;;;;3.03;2.17;;;28.30;16.00;;;;;;5075397;28;20485;-36
2022/04/13 11:50:24;;;;;;;4.30;2.30;;;28.50;15.90;;;;;;5074662;28;20430;-35
2022/04/13 11:52:57;;;;;;;6.53;2.47;;;28.50;16.10;;;;;;5075199;28;20465;-35
2022/04/13 11:55:37;;;;;;;2.80;1.97;;;28.50;15.70;;;;;;5075150;28;20411;-36
2022/04/13 11:58:08;;;;;;;3.80;2.73;;;28.40;15.60;;;;;;5074946;28;20414;-35
2022/04/13 12:00:56;;;;;;;4.83;3.60;;;28.40;15.50;;;;;;5074968;28;20847;-35
2022/04/13 12:03:38;;;;;;;4.93;2.10;;;28.50;16.00;;;;;;5075194;28;20407;-35
2022/04/13 12:06:12;;;;;;;2.60;1.83;;;28.50;15.40;;;;;;5075032;28;20413;-35
2022/04/13 12:08:43;;;;;;;4.00;2.13;;;28.60;15.30;;;;;;5075121;28;20473;-36
2022/04/13 12:11:13;;;;;;;4.33;2.80;;;28.70;14.50;;;;;;5074721;28;20911;-36
2022/04/13 12:14:04;;;;;;;3.20;2.23;;;28.70;15.20;;;;;;5074846;28;20429;-36
2022/04/13 12:16:33;;;;;;;4.67;2.43;;;28.70;15.30;;;;;;5074762;28;20399;-36
2022/04/13 12:19:10;;;;;;;5.20;2.40;;;28.60;15.40;;;;;;5074975;28;20446;-36
2022/04/13 12:21:38;;;;;;;5.93;2.90;;;28.50;14.40;;;;;;5074538;28;20462;-36
2022/04/13 12:24:09;;;;;;;4.13;2.63;;;28.40;14.80;;;;;;5074684;28;20438;-36
2022/04/13 12:26:44;;;;;;;3.27;2.13;;;28.30;14.80;;;;;;5074040;28;20407;-36
2022/04/13 12:29:15;;;;;;;5.30;3.00;;;28.30;15.20;;;;;;5074765;28;20769;-36
2022/04/13 12:31:52;;;;;;;3.87;2.40;;;28.40;14.50;;;;;;5074479;28;20493;-36
2022/04/13 12:34:22;;;;;;;3.87;2.27;;;28.50;14.30;;;;;;5074798;28;20398;-36
2022/04/13 12:37:01;;;;;;;4.40;2.67;;;28.40;14.10;;;;;;5074498;28;20411;-36
2022/04/13 12:39:32;;;;;;;4.70;2.50;;;28.50;15.00;;;;;;5074269;28;20474;-36
2022/04/13 12:41:59;;;;;;;4.73;2.77;;;28.30;14.80;;;;;;5074247;28;20539;-36
2022/04/13 12:44:25;;;;;;;4.37;2.60;;;28.30;14.70;;;;;;5074441;28;20410;-36
2022/04/13 12:47:06;;;;;;;4.97;2.73;;;28.20;14.40;;;;;;5074195;28;20411;-36
2022/04/13 12:49:32;;;;;;;4.73;3.40;;;28.10;15.10;;;;;;5074368;28;20427;-36
2022/04/13 12:51:57;;;;;;;8.80;2.33;;;28.20;14.80;;;;;;5073949;28;20411;-36